Time;durP1;ratioP1;P1;durP2;ratioP2;P2;SDS_P1;SDS_P2;PMS_P1;PMS_P2;Temp;Humidity;BMP_temperature;BMP_pressure;BME280_temperature;BME280_humidity;BME280_pressure;Samples;Min_cycle;Max_cycle;Signal;HPM_P1;HPM_P2
2022/01/22 00:00:12;;;;;;;2.60;2.40;;;;;;;;;;5033137;28;20706;-79
2022/01/22 00:02:41;;;;;;;3.30;2.88;;;;;;;;;;5051595;28;20206;-80
2022/01/22 00:05:09;;;;;;;2.80;2.60;;;;;;;;;;5047852;28;20264;-79
2022/01/22 00:07:36;;;;;;;3.22;2.45;;;;;;;;;;5049377;28;21042;-80
2022/01/22 00:10:07;;;;;;;2.97;2.72;;;;;;;;;;5046961;28;20562;-79
2022/01/22 00:12:56;;;;;;;3.05;2.75;;;;;;;;;;5044093;28;20229;-79
2022/01/22 00:15:25;;;;;;;2.53;2.33;;;;;;;;;;5047877;28;20203;-79
2022/01/22 00:17:53;;;;;;;2.67;2.38;;;;;;;;;;5050199;28;20205;-78
2022/01/22 00:20:21;;;;;;;2.85;2.53;;;;;;;;;;5039959;28;20222;-78
2022/01/22 00:22:49;;;;;;;2.92;2.72;;;;;;;;;;5048851;28;20210;-77
2022/01/22 00:25:17;;;;;;;3.13;2.83;;;;;;;;;;5049718;28;20717;-80
2022/01/22 00:27:45;;;;;;;5.28;2.47;;;;;;;;;;5047449;28;20215;-79
2022/01/22 00:30:13;;;;;;;3.40;2.78;;;;;;;;;;5049574;28;20195;-79
2022/01/22 00:32:40;;;;;;;3.08;2.50;;;;;;;;;;5048955;28;20209;-79
2022/01/22 00:35:09;;;;;;;3.17;2.90;;;;;;;;;;5031717;28;20203;-77
2022/01/22 00:37:37;;;;;;;3.17;2.83;;;;;;;;;;5035135;28;20390;-80
2022/01/22 00:40:04;;;;;;;3.30;2.42;;;;;;;;;;5056116;28;20272;-79
2022/01/22 00:42:33;;;;;;;2.80;2.55;;;;;;;;;;5043859;28;20199;-79
2022/01/22 00:45:00;;;;;;;7.03;3.85;;;;;;;;;;5044403;28;20207;-77
2022/01/22 00:47:27;;;;;;;4.70;4.22;;;;;;;;;;5042164;28;20222;-78
2022/01/22 00:49:54;;;;;;;3.30;3.00;;;;;;;;;;5050239;28;20249;-77
2022/01/22 00:52:23;;;;;;;3.10;2.60;;;;;;;;;;5042684;28;20294;-78
2022/01/22 00:54:50;;;;;;;2.33;2.13;;;;;;;;;;5046585;28;20218;-78
2022/01/22 00:57:17;;;;;;;2.92;2.60;;;;;;;;;;5040416;28;20628;-77
2022/01/22 00:59:44;;;;;;;3.35;2.38;;;;;;;;;;5045009;28;20199;-79
2022/01/22 01:02:11;;;;;;;3.63;2.90;;;;;;;;;;5044733;28;20191;-78
2022/01/22 01:04:38;;;;;;;3.25;2.95;;;;;;;;;;5050009;28;20669;-77
2022/01/22 01:07:06;;;;;;;3.30;3.03;;;;;;;;;;5048292;28;20713;-77
2022/01/22 01:09:37;;;;;;;3.90;3.15;;;;;;;;;;5048905;28;20268;-78
2022/01/22 01:12:07;;;;;;;3.80;3.22;;;;;;;;;;5041853;28;20195;-77
2022/01/22 01:14:39;;;;;;;3.60;2.75;;;;;;;;;;5042077;28;20218;-77
2022/01/22 01:17:22;;;;;;;3.63;3.03;;;;;;;;;;5045655;28;20629;-78
2022/01/22 01:33:41;;;;;;;3.15;2.90;;;;;;;;;;5040086;28;20205;-78
2022/01/22 01:36:10;;;;;;;9.38;4.35;;;;;;;;;;5044979;28;20251;-77
2022/01/22 01:38:42;;;;;;;2.85;2.65;;;;;;;;;;5049479;28;20195;-79
2022/01/22 01:41:19;;;;;;;2.90;2.70;;;;;;;;;;5046212;28;20246;-77
2022/01/22 01:43:46;;;;;;;2.88;2.67;;;;;;;;;;5047679;28;20226;-78
2022/01/22 01:46:14;;;;;;;6.60;3.10;;;;;;;;;;5048873;28;20620;-76
2022/01/22 01:48:42;;;;;;;3.90;3.25;;;;;;;;;;5048499;28;20555;-77
2022/01/22 01:51:10;;;;;;;3.60;3.30;;;;;;;;;;5047225;28;20199;-77
2022/01/22 01:53:51;;;;;;;4.05;3.70;;;;;;;;;;5049829;28;20677;-78
2022/01/22 01:59:04;;;;;;;6.43;3.58;;;;;;;;;;5046984;28;20845;-79
2022/01/22 02:01:31;;;;;;;5.05;3.63;;;;;;;;;;5047947;28;20680;-79
2022/01/22 02:03:58;;;;;;;4.68;3.03;;;;;;;;;;5040804;28;20250;-78
2022/01/22 02:06:25;;;;;;;3.60;3.30;;;;;;;;;;5035652;28;20199;-77
2022/01/22 02:08:53;;;;;;;2.60;2.40;;;;;;;;;;5047790;28;20206;-77
2022/01/22 02:11:24;;;;;;;3.17;2.88;;;;;;;;;;5043083;28;20622;-77
2022/01/22 02:14:04;;;;;;;3.70;3.40;;;;;;;;;;5052683;28;20281;-78
2022/01/22 02:24:50;;;;;;;4.28;3.90;;;;;;;;;;5051994;28;20727;-79
2022/01/22 02:27:17;;;;;;;2.88;2.67;;;;;;;;;;5051568;28;20218;-77
2022/01/22 02:29:44;;;;;;;2.88;2.67;;;;;;;;;;5051759;28;20199;-77
2022/01/22 02:32:43;;;;;;;5.47;2.95;;;;;;;;;;5042436;28;20543;-77
2022/01/22 02:35:16;;;;;;;4.75;3.22;;;;;;;;;;5040123;28;20195;-78
2022/01/22 02:37:51;;;;;;;3.55;3.25;;;;;;;;;;5044513;28;20604;-76
2022/01/22 02:40:24;;;;;;;6.95;3.42;;;;;;;;;;5052582;28;20230;-78
2022/01/22 02:42:51;;;;;;;4.30;2.80;;;;;;;;;;5046652;28;20566;-77
2022/01/22 02:45:19;;;;;;;2.75;2.55;;;;;;;;;;5045929;28;20208;-78
2022/01/22 02:47:47;;;;;;;4.43;3.47;;;;;;;;;;5044747;28;20730;-77
2022/01/22 02:50:14;;;;;;;3.70;3.40;;;;;;;;;;5050092;28;20740;-76
2022/01/22 02:52:41;;;;;;;5.80;3.35;;;;;;;;;;5051772;28;20240;-78
2022/01/22 02:55:12;;;;;;;3.33;3.08;;;;;;;;;;5052772;28;20244;-78
2022/01/22 02:57:41;;;;;;;4.65;4.28;;;;;;;;;;5047406;28;20289;-78
2022/01/22 03:00:10;;;;;;;5.43;3.10;;;;;;;;;;5050097;28;20194;-76
2022/01/22 03:02:38;;;;;;;3.50;3.20;;;;;;;;;;5051974;28;20206;-78
2022/01/22 03:05:05;;;;;;;3.58;3.28;;;;;;;;;;5049851;28;20200;-75
2022/01/22 03:07:32;;;;;;;2.83;2.58;;;;;;;;;;5050050;28;20647;-78
2022/01/22 03:10:02;;;;;;;4.82;3.13;;;;;;;;;;5034447;28;20257;-77
2022/01/22 03:12:54;;;;;;;3.13;2.88;;;;;;;;;;5046445;28;20206;-77
2022/01/22 03:18:01;;;;;;;5.32;3.42;;;;;;;;;;5043334;28;20187;-78
2022/01/22 03:20:46;;;;;;;5.70;3.05;;;;;;;;;;5032466;28;20310;-77
2022/01/22 03:27:20;;;;;;;4.00;3.10;;;;;;;;;;5043655;28;20689;-77
2022/01/22 03:28:57;;;;;;;3.53;3.25;;;;;;;;;;5016987;28;20209;-75
2022/01/22 03:31:24;;;;;;;3.95;3.00;;;;;;;;;;5048414;28;20219;-73
2022/01/22 03:33:51;;;;;;;2.78;2.40;;;;;;;;;;5050734;28;20199;-73
2022/01/22 03:36:19;;;;;;;5.93;3.78;;;;;;;;;;5041512;28;20208;-75
2022/01/22 03:38:46;;;;;;;5.05;3.40;;;;;;;;;;5044774;28;20195;-73
2022/01/22 03:41:13;;;;;;;3.70;3.28;;;;;;;;;;5048678;28;20222;-76
2022/01/22 03:43:40;;;;;;;5.55;3.65;;;;;;;;;;5049437;28;20202;-73
2022/01/22 03:46:09;;;;;;;2.60;2.40;;;;;;;;;;5037417;28;20313;-73
2022/01/22 03:48:36;;;;;;;2.83;2.53;;;;;;;;;;5050741;28;20199;-73
2022/01/22 03:51:03;;;;;;;4.45;2.95;;;;;;;;;;5048459;28;20210;-75
2022/01/22 03:53:30;;;;;;;3.00;2.80;;;;;;;;;;5048970;28;20547;-76
2022/01/22 03:56:02;;;;;;;3.00;2.70;;;;;;;;;;5038759;28;20618;-75
2022/01/22 03:58:30;;;;;;;3.05;2.65;;;;;;;;;;5041815;28;20658;-74
2022/01/22 04:01:18;;;;;;;3.83;2.95;;;;;;;;;;5047381;28;20652;-72
2022/01/22 04:03:55;;;;;;;5.75;2.60;;;;;;;;;;5040070;28;20210;-77
2022/01/22 04:09:08;;;;;;;4.53;2.67;;;;;;;;;;5050870;28;20190;-74
2022/01/22 04:11:38;;;;;;;4.63;3.15;;;;;;;;;;5044870;28;20199;-75
2022/01/22 04:14:12;;;;;;;3.05;2.75;;;;;;;;;;5047037;28;20654;-76
2022/01/22 04:16:44;;;;;;;3.65;3.13;;;;;;;;;;5037240;28;20229;-77
2022/01/22 04:24:54;;;;;;;2.63;2.42;;;;;;;;;;5046101;28;20275;-74
2022/01/22 04:27:23;;;;;;;3.35;3.05;;;;;;;;;;5037363;28;20668;-73
2022/01/22 04:29:51;;;;;;;3.35;3.03;;;;;;;;;;5047283;28;20616;-74
2022/01/22 04:32:18;;;;;;;4.55;2.97;;;;;;;;;;5049811;28;20190;-75
2022/01/22 04:34:47;;;;;;;5.13;3.55;;;;;;;;;;5051748;28;20203;-74
2022/01/22 04:37:17;;;;;;;3.22;2.80;;;;;;;;;;5047337;28;20654;-75
2022/01/22 04:39:44;;;;;;;2.80;2.60;;;;;;;;;;5049112;28;20566;-74
2022/01/22 04:42:11;;;;;;;3.42;3.05;;;;;;;;;;5048374;28;20215;-75
2022/01/22 04:44:46;;;;;;;3.42;3.13;;;;;;;;;;5044228;28;20220;-74
2022/01/22 04:47:28;;;;;;;4.28;2.97;;;;;;;;;;5049880;28;20197;-73
2022/01/22 04:52:44;;;;;;;2.58;2.38;;;;;;;;;;5044779;28;20681;-73
2022/01/22 04:55:10;;;;;;;2.60;2.10;;;;;;;;;;5049936;28;20704;-73
2022/01/22 04:57:38;;;;;;;3.53;2.08;;;;;;;;;;5045185;28;20198;-73
2022/01/22 05:00:07;;;;;;;2.95;2.25;;;;;;;;;;5047783;28;20597;-74
2022/01/22 05:02:34;;;;;;;2.38;2.17;;;;;;;;;;5031441;28;20222;-75
2022/01/22 05:05:02;;;;;;;4.93;2.85;;;;;;;;;;5031266;28;20199;-73
2022/01/22 05:07:29;;;;;;;4.95;3.33;;;;;;;;;;5048253;28;20199;-74
2022/01/22 05:09:56;;;;;;;2.33;2.13;;;;;;;;;;5049563;28;20186;-75
2022/01/22 05:12:23;;;;;;;2.95;2.70;;;;;;;;;;5044218;28;20201;-73
2022/01/22 05:14:50;;;;;;;2.25;2.05;;;;;;;;;;5046567;28;20248;-75
2022/01/22 05:17:19;;;;;;;1.95;1.83;;;;;;;;;;5048112;28;20203;-74
2022/01/22 05:19:51;;;;;;;2.45;2.25;;;;;;;;;;5039751;28;20206;-75
2022/01/22 05:22:36;;;;;;;3.47;3.17;;;;;;;;;;5041022;28;20631;-75
2022/01/22 05:25:09;;;;;;;2.55;2.35;;;;;;;;;;5042106;28;20853;-73
2022/01/22 05:27:54;;;;;;;3.03;2.58;;;;;;;;;;5041757;28;20211;-75
2022/01/22 05:33:31;;;;;;;4.22;2.53;;;;;;;;;;5088495;28;20575;-73
2022/01/22 05:38:44;;;;;;;2.53;2.10;;;;;;;;;;5085291;28;20204;-74
2022/01/22 05:41:12;;;;;;;1.98;1.63;;;;;;;;;;5086469;28;20186;-74
2022/01/22 05:43:39;;;;;;;3.42;2.33;;;;;;;;;;5080370;28;20197;-73
2022/01/22 05:46:06;;;;;;;2.50;2.30;;;;;;;;;;5084736;28;20221;-73
2022/01/22 05:48:34;;;;;;;2.30;2.10;;;;;;;;;;5088565;28;20224;-73
2022/01/22 05:51:04;;;;;;;2.38;2.17;;;;;;;;;;5085470;28;20217;-74
2022/01/22 05:53:45;;;;;;;2.20;2.00;;;;;;;;;;5086894;28;20206;-72
2022/01/22 06:01:43;;;;;;;3.13;2.30;;;;;;;;;;5080097;28;20201;-73
2022/01/22 06:04:12;;;;;;;3.03;1.95;;;;;;;;;;5068447;28;20550;-74
2022/01/22 06:06:39;;;;;;;3.30;1.55;;;;;;;;;;5067773;28;20213;-74
2022/01/22 06:09:09;;;;;;;4.80;2.58;;;;;;;;;;5072722;28;20665;-74
2022/01/22 06:11:50;;;;;;;2.05;1.85;;;;;;;;;;5085723;28;20218;-73
2022/01/22 06:14:17;;;;;;;3.13;2.47;;;;;;;;;;5077094;28;20621;-73
2022/01/22 06:16:45;;;;;;;2.75;2.55;;;;;;;;;;5073969;28;20197;-73
2022/01/22 06:19:13;;;;;;;2.90;2.03;;;;;;;;;;5067246;28;21159;-74
2022/01/22 06:21:40;;;;;;;2.35;1.98;;;;;;;;;;5070736;28;20652;-74
2022/01/22 06:24:08;;;;;;;5.32;2.20;;;;;;;;;;5075847;28;20271;-73
2022/01/22 06:26:35;;;;;;;2.53;2.03;;;;;;;;;;5076712;28;20194;-74
2022/01/22 06:29:02;;;;;;;2.40;1.77;;;;;;;;;;5084805;28;20205;-75
2022/01/22 06:31:29;;;;;;;2.13;1.92;;;;;;;;;;5073997;28;20241;-74
2022/01/22 06:33:58;;;;;;;2.22;1.92;;;;;;;;;;5087714;28;20201;-74
2022/01/22 06:36:26;;;;;;;2.08;1.80;;;;;;;;;;5083410;28;20281;-75
2022/01/22 06:38:58;;;;;;;2.30;1.67;;;;;;;;;;5084852;28;20236;-76
2022/01/22 06:44:06;;;;;;;2.25;1.45;;;;;;;;;;5063154;28;20618;-74
2022/01/22 06:46:33;;;;;;;4.30;2.10;;;;;;;;;;5070467;28;20213;-73
2022/01/22 06:49:01;;;;;;;1.77;1.67;;;;;;;;;;5071152;28;20194;-75
2022/01/22 06:51:29;;;;;;;2.70;1.90;;;;;;;;;;5056405;28;20266;-73
2022/01/22 06:53:56;;;;;;;2.60;1.80;;;;;;;;;;5061348;28;20209;-73
2022/01/22 06:56:25;;;;;;;5.63;1.65;;;;;;;;;;5066657;28;20480;-73
2022/01/22 06:58:52;;;;;;;5.88;2.28;;;;;;;;;;5070475;28;20195;-74
2022/01/22 07:01:19;;;;;;;2.00;1.80;;;;;;;;;;5066966;28;20198;-75
2022/01/22 07:03:46;;;;;;;2.60;1.73;;;;;;;;;;5073082;28;20194;-75
2022/01/22 07:06:13;;;;;;;2.10;1.80;;;;;;;;;;5070314;28;20539;-75
2022/01/22 07:08:41;;;;;;;1.75;1.65;;;;;;;;;;5058654;28;20715;-73
2022/01/22 07:11:08;;;;;;;1.67;1.58;;;;;;;;;;5068237;28;20194;-73
2022/01/22 07:13:35;;;;;;;2.35;1.77;;;;;;;;;;5069414;28;20217;-74
2022/01/22 07:16:02;;;;;;;2.38;1.92;;;;;;;;;;5067037;28;20193;-73
2022/01/22 07:18:30;;;;;;;1.88;1.77;;;;;;;;;;5072548;28;20295;-75
2022/01/22 07:20:57;;;;;;;2.78;1.85;;;;;;;;;;5070805;28;20627;-73
2022/01/22 07:23:55;;;;;;;5.57;1.85;;;;;;;;;;5053982;28;20217;-73
2022/01/22 07:26:20;;;;;;;1.92;1.70;;;;;;;;;;5062525;28;20190;-74
2022/01/22 07:28:47;;;;;;;3.67;3.35;;;;;;;;;;5067708;28;20210;-75
2022/01/22 07:31:16;;;;;;;3.20;1.55;;;;;;;;;;5059769;28;20666;-74
2022/01/22 07:33:43;;;;;;;2.20;1.90;;;;;;;;;;5073280;28;20220;-73
2022/01/22 07:36:10;;;;;;;2.70;1.50;;;;;;;;;;5066066;28;20203;-72
2022/01/22 07:38:39;;;;;;;2.10;1.67;;;;;;;;;;5060473;28;20202;-73
2022/01/22 07:41:07;;;;;;;1.38;1.27;;;;;;;;;;5070820;28;20224;-73
2022/01/22 07:43:36;;;;;;;2.38;1.33;;;;;;;;;;5071061;28;20680;-74
2022/01/22 07:46:03;;;;;;;2.50;2.05;;;;;;;;;;5062404;28;20225;-74
2022/01/22 07:48:30;;;;;;;1.58;1.48;;;;;;;;;;5069849;28;20201;-74
2022/01/22 07:50:57;;;;;;;1.55;1.38;;;;;;;;;;5065036;28;20612;-72
2022/01/22 07:53:24;;;;;;;2.88;1.70;;;;;;;;;;5067855;28;20712;-74
2022/01/22 07:55:51;;;;;;;3.05;1.15;;;;;;;;;;5060987;28;20198;-72
2022/01/22 07:58:19;;;;;;;2.13;1.98;;;;;;;;;;5056408;28;20203;-73
2022/01/22 08:00:47;;;;;;;2.40;1.50;;;;;;;;;;5064242;28;20206;-73
2022/01/22 08:03:14;;;;;;;1.73;1.33;;;;;;;;;;5059595;28;20629;-73
2022/01/22 08:05:41;;;;;;;2.00;1.20;;;;;;;;;;5053908;28;20194;-73
2022/01/22 08:08:08;;;;;;;1.60;1.50;;;;;;;;;;5062317;28;20191;-72
2022/01/22 08:10:35;;;;;;;1.77;1.58;;;;;;;;;;5052103;28;20249;-71
2022/01/22 08:13:02;;;;;;;1.58;1.40;;;;;;;;;;5067188;28;20214;-73
2022/01/22 08:15:29;;;;;;;2.38;1.20;;;;;;;;;;5065781;28;20199;-76
2022/01/22 08:18:00;;;;;;;2.00;1.80;;;;;;;;;;5061209;28;20190;-77
2022/01/22 08:20:27;;;;;;;1.92;1.73;;;;;;;;;;5055378;28;20539;-74
2022/01/22 08:22:55;;;;;;;2.70;1.50;;;;;;;;;;5050296;28;20191;-75
2022/01/22 08:25:22;;;;;;;1.63;1.35;;;;;;;;;;5060797;28;20209;-75
2022/01/22 08:30:30;;;;;;;3.28;1.67;;;;;;;;;;5056741;28;20226;-75
2022/01/22 08:33:19;;;;;;;1.75;1.48;;;;;;;;;;5064694;28;20214;-72
2022/01/22 08:35:55;;;;;;;1.65;1.13;;;;;;;;;;5051632;28;20289;-74
2022/01/22 08:38:22;;;;;;;2.00;1.90;;;;;;;;;;5064850;28;20195;-73
2022/01/22 08:40:49;;;;;;;1.85;1.73;;;;;;;;;;5067370;28;20209;-74
2022/01/22 08:43:17;;;;;;;2.53;1.45;;;;;;;;;;5057103;28;20198;-72
2022/01/22 08:45:44;;;;;;;1.52;1.40;;;;;;;;;;5052644;28;20252;-72
2022/01/22 08:48:13;;;;;;;2.03;1.63;;;;;;;;;;5065584;28;20289;-73
2022/01/22 08:50:40;;;;;;;1.85;1.50;;;;;;;;;;5052713;28;20210;-73
2022/01/22 08:53:07;;;;;;;1.30;1.20;;;;;;;;;;5060083;28;21012;-74
2022/01/22 08:55:34;;;;;;;1.83;1.42;;;;;;;;;;5067819;28;20198;-73
2022/01/22 08:58:02;;;;;;;2.72;1.77;;;;;;;;;;5056012;28;20603;-74
2022/01/22 09:00:29;;;;;;;2.05;1.73;;;;;;;;;;5056902;28;20198;-73
2022/01/22 09:02:56;;;;;;;1.88;1.35;;;;;;;;;;5063055;28;20201;-72
2022/01/22 09:05:31;;;;;;;3.35;2.55;;;;;;;;;;5054208;28;20202;-73
2022/01/22 09:07:58;;;;;;;3.35;1.65;;;;;;;;;;5052938;28;20247;-72
2022/01/22 09:10:25;;;;;;;2.60;1.50;;;;;;;;;;5062097;28;20678;-75
2022/01/22 09:12:52;;;;;;;1.80;1.60;;;;;;;;;;5057362;28;20236;-74
2022/01/22 09:15:19;;;;;;;1.90;1.73;;;;;;;;;;5065280;28;20668;-72
2022/01/22 09:17:48;;;;;;;2.20;1.45;;;;;;;;;;5065188;28;20202;-73
2022/01/22 09:20:30;;;;;;;2.70;1.67;;;;;;;;;;5065195;28;20202;-73
2022/01/22 09:22:58;;;;;;;1.65;1.55;;;;;;;;;;5070588;28;20216;-72
2022/01/22 09:25:25;;;;;;;2.28;1.88;;;;;;;;;;5056588;28;21727;-74
2022/01/22 09:27:54;;;;;;;2.35;1.88;;;;;;;;;;5058610;28;20194;-73
2022/01/22 09:30:21;;;;;;;1.58;1.48;;;;;;;;;;5062601;28;20201;-73
2022/01/22 09:32:49;;;;;;;1.42;1.27;;;;;;;;;;5053612;28;20219;-74
2022/01/22 09:35:16;;;;;;;1.98;1.20;;;;;;;;;;5057055;28;20206;-73
2022/01/22 09:37:43;;;;;;;1.70;1.60;;;;;;;;;;5054679;28;20195;-72
2022/01/22 09:40:13;;;;;;;2.55;1.30;;;;;;;;;;5058424;28;20189;-73
2022/01/22 09:42:40;;;;;;;1.50;1.30;;;;;;;;;;5061046;28;20198;-73
2022/01/22 09:45:08;;;;;;;6.45;1.95;;;;;;;;;;5061476;28;20231;-71
2022/01/22 09:47:36;;;;;;;1.85;1.45;;;;;;;;;;5063157;28;20191;-72
2022/01/22 09:50:04;;;;;;;1.55;1.40;;;;;;;;;;5060618;28;20645;-73
2022/01/22 09:52:31;;;;;;;2.10;1.42;;;;;;;;;;5059651;28;20215;-72
2022/01/22 09:54:58;;;;;;;1.98;1.40;;;;;;;;;;5063361;28;20255;-72
2022/01/22 09:57:27;;;;;;;1.50;1.40;;;;;;;;;;5061188;28;20205;-72
2022/01/22 09:59:54;;;;;;;1.70;1.60;;;;;;;;;;5057078;28;20263;-73
2022/01/22 10:02:22;;;;;;;2.28;1.40;;;;;;;;;;5055051;28;20669;-72
2022/01/22 10:04:50;;;;;;;1.60;1.48;;;;;;;;;;5061672;28;20206;-72
2022/01/22 10:07:18;;;;;;;1.35;1.25;;;;;;;;;;5056994;28;20199;-72
2022/01/22 10:09:58;;;;;;;1.63;1.45;;;;;;;;;;5056524;28;20198;-72
2022/01/22 10:12:29;;;;;;;1.70;1.45;;;;;;;;;;5056008;28;20252;-72
2022/01/22 10:15:08;;;;;;;5.07;2.13;;;;;;;;;;5056482;28;20191;-73
2022/01/22 10:17:46;;;;;;;1.40;1.20;;;;;;;;;;5056991;28;20260;-72
2022/01/22 10:20:29;;;;;;;1.50;1.20;;;;;;;;;;5065584;28;20203;-72
2022/01/22 10:22:59;;;;;;;1.90;1.35;;;;;;;;;;5063708;28;20604;-73
2022/01/22 10:25:31;;;;;;;2.10;1.63;;;;;;;;;;5058664;28;20201;-73
2022/01/22 10:28:01;;;;;;;2.22;1.48;;;;;;;;;;5069430;28;20209;-74
2022/01/22 10:30:34;;;;;;;1.85;1.75;;;;;;;;;;5070102;28;20217;-73
2022/01/22 10:33:08;;;;;;;1.70;1.55;;;;;;;;;;5058526;28;20228;-72
2022/01/22 10:35:35;;;;;;;2.45;1.55;;;;;;;;;;5066599;28;20217;-74
2022/01/22 10:38:04;;;;;;;1.30;1.20;;;;;;;;;;5061439;28;20698;-75
2022/01/22 10:40:32;;;;;;;2.35;1.83;;;;;;;;;;5071383;28;20565;-73
2022/01/22 10:43:16;;;;;;;1.90;1.80;;;;;;;;;;5054381;28;20195;-73
2022/01/22 10:45:43;;;;;;;1.60;1.50;;;;;;;;;;5056333;28;20221;-73
2022/01/22 10:48:15;;;;;;;1.75;1.60;;;;;;;;;;5065882;28;20649;-74
2022/01/22 10:50:42;;;;;;;1.45;1.35;;;;;;;;;;5066102;28;20259;-72
2022/01/22 10:53:09;;;;;;;1.25;1.15;;;;;;;;;;5050824;28;20261;-74
2022/01/22 10:55:58;;;;;;;1.85;1.75;;;;;;;;;;5068585;28;20205;-73
2022/01/22 10:58:26;;;;;;;2.40;1.70;;;;;;;;;;5057718;28;20206;-74
2022/01/22 11:00:59;;;;;;;2.40;1.58;;;;;;;;;;5054329;28;20203;-73
2022/01/22 11:03:26;;;;;;;3.65;1.60;;;;;;;;;;5063284;28;20290;-72
2022/01/22 11:05:54;;;;;;;2.35;1.48;;;;;;;;;;5054094;28;20202;-73
2022/01/22 11:08:21;;;;;;;1.95;1.30;;;;;;;;;;5050235;28;20209;-73
2022/01/22 11:10:48;;;;;;;1.67;1.48;;;;;;;;;;5053124;28;20311;-73
2022/01/22 11:13:16;;;;;;;2.38;1.60;;;;;;;;;;5063824;28;20232;-74
2022/01/22 11:15:45;;;;;;;1.90;1.70;;;;;;;;;;5065632;28;20684;-73
2022/01/22 11:18:12;;;;;;;2.25;1.40;;;;;;;;;;5070278;28;20210;-73
2022/01/22 11:20:40;;;;;;;2.20;1.98;;;;;;;;;;5064594;28;20264;-73
2022/01/22 11:23:08;;;;;;;2.22;1.42;;;;;;;;;;5064881;28;20327;-73
2022/01/22 11:25:35;;;;;;;2.20;1.65;;;;;;;;;;5049881;28;20728;-74
2022/01/22 11:28:02;;;;;;;1.35;1.23;;;;;;;;;;5053901;28;20237;-73
2022/01/22 11:30:30;;;;;;;1.60;1.50;;;;;;;;;;5067490;28;20203;-73
2022/01/22 11:33:02;;;;;;;1.70;1.60;;;;;;;;;;5050090;28;20276;-74
2022/01/22 11:35:33;;;;;;;1.58;1.40;;;;;;;;;;5066976;28;20198;-74
2022/01/22 11:38:07;;;;;;;4.15;1.40;;;;;;;;;;5067926;28;20206;-73
2022/01/22 11:40:34;;;;;;;1.48;1.38;;;;;;;;;;5048829;28;20264;-73
2022/01/22 11:43:06;;;;;;;7.30;1.48;;;;;;;;;;5059029;28;20190;-74
2022/01/22 11:45:36;;;;;;;1.30;1.20;;;;;;;;;;5059339;28;20218;-73
2022/01/22 11:48:17;;;;;;;2.80;1.38;;;;;;;;;;5062567;28;20217;-74
2022/01/22 11:50:46;;;;;;;1.30;1.20;;;;;;;;;;5060260;28;20203;-73
2022/01/22 11:53:26;;;;;;;1.60;1.42;;;;;;;;;;5062661;28;20223;-73
2022/01/22 11:56:12;;;;;;;1.70;1.30;;;;;;;;;;5058485;28;20198;-73
2022/01/22 11:58:54;;;;;;;1.35;1.10;;;;;;;;;;5066275;28;20209;-73
2022/01/22 12:01:36;;;;;;;1.40;1.30;;;;;;;;;;5057754;28;20221;-74
2022/01/22 12:04:04;;;;;;;1.30;1.20;;;;;;;;;;5052902;28;20198;-74
2022/01/22 12:06:31;;;;;;;1.90;1.70;;;;;;;;;;5054961;28;20507;-74
2022/01/22 12:09:06;;;;;;;2.45;1.20;;;;;;;;;;5066491;28;20244;-73
2022/01/22 12:14:55;;;;;;;1.17;1.00;;;;;;;;;;5066132;28;20251;-74
2022/01/22 12:17:42;;;;;;;1.40;1.00;;;;;;;;;;5002220;28;20619;-73
2022/01/22 12:20:41;;;;;;;1.20;1.10;;;;;;;;;;5042331;28;20207;-75
2022/01/22 12:23:09;;;;;;;1.75;1.40;;;;;;;;;;5063789;28;20229;-73
2022/01/22 12:25:49;;;;;;;1.00;0.90;;;;;;;;;;5063756;28;20682;-72
2022/01/22 12:28:33;;;;;;;1.30;1.20;;;;;;;;;;5062417;28;20220;-75
2022/01/22 12:31:02;;;;;;;1.50;1.40;;;;;;;;;;5059165;28;20194;-73
2022/01/22 12:33:45;;;;;;;1.35;1.15;;;;;;;;;;5060050;28;20318;-73
2022/01/22 12:36:18;;;;;;;6.68;1.65;;;;;;;;;;5056488;28;20689;-74
2022/01/22 12:38:48;;;;;;;1.20;1.10;;;;;;;;;;5066170;28;20285;-73
2022/01/22 12:41:28;;;;;;;1.30;1.20;;;;;;;;;;5061938;28;20569;-72
2022/01/22 12:44:04;;;;;;;1.58;1.25;;;;;;;;;;5065252;28;20213;-73
2022/01/22 12:46:31;;;;;;;2.67;1.33;;;;;;;;;;5055124;28;20222;-74
2022/01/22 12:48:58;;;;;;;1.40;1.30;;;;;;;;;;5063446;28;20201;-74
2022/01/22 12:51:27;;;;;;;1.80;1.20;;;;;;;;;;5065392;28;20206;-73
2022/01/22 12:53:54;;;;;;;1.85;1.30;;;;;;;;;;5048200;28;20242;-75
2022/01/22 12:59:10;;;;;;;1.10;0.90;;;;;;;;;;5060751;28;20200;-72
2022/01/22 13:01:38;;;;;;;1.38;1.10;;;;;;;;;;5064803;28;20205;-72
2022/01/22 13:04:08;;;;;;;1.05;0.95;;;;;;;;;;5065958;28;20695;-73
2022/01/22 13:06:40;;;;;;;1.20;1.10;;;;;;;;;;5063095;28;20198;-72
2022/01/22 13:09:08;;;;;;;1.10;0.98;;;;;;;;;;5049674;28;20194;-74
2022/01/22 13:11:44;;;;;;;1.30;1.02;;;;;;;;;;5057221;28;20676;-72
2022/01/22 13:14:11;;;;;;;1.20;1.00;;;;;;;;;;5056015;28;20222;-72
2022/01/22 13:16:48;;;;;;;1.10;0.90;;;;;;;;;;5063765;28;20451;-72
2022/01/22 13:19:15;;;;;;;1.40;1.15;;;;;;;;;;5056546;28;20199;-73
2022/01/22 13:21:50;;;;;;;1.02;0.93;;;;;;;;;;5057591;28;20203;-73
2022/01/22 13:24:19;;;;;;;1.63;1.30;;;;;;;;;;5049785;28;20712;-72
2022/01/22 13:26:52;;;;;;;1.10;0.90;;;;;;;;;;5065667;28;20673;-72
2022/01/22 13:29:20;;;;;;;1.00;0.90;;;;;;;;;;5063248;28;20202;-74
2022/01/22 13:32:18;;;;;;;1.40;1.05;;;;;;;;;;5056113;28;20202;-73
2022/01/22 13:35:06;;;;;;;1.10;1.00;;;;;;;;;;5013666;28;20736;-73
2022/01/22 13:38:17;;;;;;;1.20;1.10;;;;;;;;;;5059034;28;20202;-75
2022/01/22 13:41:05;;;;;;;1.15;0.95;;;;;;;;;;5063764;28;20195;-74
2022/01/22 13:49:06;;;;;;;2.10;1.00;;;;;;;;;;5020305;28;20795;-73
2022/01/22 13:51:34;;;;;;;1.02;0.70;;;;;;;;;;5045829;28;20221;-74
2022/01/22 13:54:03;;;;;;;1.00;0.90;;;;;;;;;;5069733;28;20217;-74
2022/01/22 13:56:44;;;;;;;1.10;1.00;;;;;;;;;;5070199;28;20271;-73
2022/01/22 13:59:15;;;;;;;1.10;0.90;;;;;;;;;;5062255;28;20203;-74
2022/01/22 14:01:50;;;;;;;1.10;1.00;;;;;;;;;;5064402;28;20198;-73
2022/01/22 14:04:18;;;;;;;1.00;0.90;;;;;;;;;;5066261;28;20220;-73
2022/01/22 14:06:46;;;;;;;2.40;1.20;;;;;;;;;;5053488;28;20207;-72
2022/01/22 14:09:16;;;;;;;0.98;0.90;;;;;;;;;;5070535;28;20206;-73
2022/01/22 14:12:02;;;;;;;1.27;0.90;;;;;;;;;;5064988;28;20194;-73
2022/01/22 14:14:31;;;;;;;0.90;0.73;;;;;;;;;;5064293;28;20222;-72
2022/01/22 14:17:09;;;;;;;1.15;1.00;;;;;;;;;;5060666;28;20658;-73
2022/01/22 14:19:36;;;;;;;3.78;1.00;;;;;;;;;;5064444;28;20233;-73
2022/01/22 14:22:03;;;;;;;2.00;1.23;;;;;;;;;;5055627;28;20615;-73
2022/01/22 14:24:31;;;;;;;2.50;1.00;;;;;;;;;;5063904;28;20661;-74
2022/01/22 14:26:58;;;;;;;1.92;1.10;;;;;;;;;;5055648;28;20208;-74
2022/01/22 14:29:25;;;;;;;1.33;1.20;;;;;;;;;;5054563;28;20201;-73
2022/01/22 14:31:54;;;;;;;1.20;1.10;;;;;;;;;;5064322;28;20206;-74
2022/01/22 14:34:31;;;;;;;1.67;1.40;;;;;;;;;;5065696;28;20757;-73
2022/01/22 14:36:59;;;;;;;5.72;1.55;;;;;;;;;;5061390;28;20212;-73
2022/01/22 14:39:30;;;;;;;1.55;1.35;;;;;;;;;;5050303;28;20678;-75
2022/01/22 14:44:45;;;;;;;1.88;1.38;;;;;;;;;;5061022;28;20596;-74
2022/01/22 14:47:13;;;;;;;1.17;1.08;;;;;;;;;;5068768;28;20201;-74
2022/01/22 14:49:43;;;;;;;1.85;1.58;;;;;;;;;;5061797;28;20253;-73
2022/01/22 14:52:11;;;;;;;3.05;1.30;;;;;;;;;;5057701;28;20251;-74
2022/01/22 14:54:39;;;;;;;1.17;0.95;;;;;;;;;;5070134;28;20264;-75
2022/01/22 14:57:08;;;;;;;1.58;1.42;;;;;;;;;;5059802;28;20249;-74
2022/01/22 14:59:36;;;;;;;1.50;1.33;;;;;;;;;;5049727;28;20199;-73
2022/01/22 15:02:03;;;;;;;1.85;1.45;;;;;;;;;;5064010;28;20202;-73
2022/01/22 15:04:31;;;;;;;1.73;1.52;;;;;;;;;;5062875;28;20586;-73
2022/01/22 15:06:58;;;;;;;1.88;1.35;;;;;;;;;;5056970;28;20615;-74
2022/01/22 15:09:26;;;;;;;1.58;1.48;;;;;;;;;;5065843;28;20650;-73
2022/01/22 15:11:53;;;;;;;1.83;1.52;;;;;;;;;;5058099;28;20591;-74
2022/01/22 15:14:23;;;;;;;2.22;1.52;;;;;;;;;;5061898;28;20269;-75
2022/01/22 15:17:03;;;;;;;2.20;2.00;;;;;;;;;;5065383;28;20198;-73
2022/01/22 15:19:30;;;;;;;4.40;1.80;;;;;;;;;;5063645;28;20730;-73
2022/01/22 15:21:57;;;;;;;1.92;1.50;;;;;;;;;;5068442;28;20206;-73
2022/01/22 15:24:25;;;;;;;2.28;1.80;;;;;;;;;;5081814;28;20223;-74
2022/01/22 15:26:53;;;;;;;1.90;1.70;;;;;;;;;;5067233;28;20233;-75
2022/01/22 15:29:25;;;;;;;2.92;1.60;;;;;;;;;;5063512;28;20190;-73
2022/01/22 15:32:05;;;;;;;1.83;1.60;;;;;;;;;;5052550;28;20852;-75
2022/01/22 15:34:43;;;;;;;1.60;1.50;;;;;;;;;;5051736;28;20221;-74
2022/01/22 15:37:10;;;;;;;2.58;1.65;;;;;;;;;;5055995;28;20206;-74
2022/01/22 15:39:38;;;;;;;4.10;1.63;;;;;;;;;;5067175;28;20209;-74
2022/01/22 15:42:05;;;;;;;1.70;1.60;;;;;;;;;;5055652;28;20209;-73
2022/01/22 15:44:34;;;;;;;2.20;1.88;;;;;;;;;;5064603;28;20440;-73
2022/01/22 15:47:01;;;;;;;4.40;2.58;;;;;;;;;;5056430;28;20225;-73
2022/01/22 15:49:29;;;;;;;3.10;1.58;;;;;;;;;;5060017;28;20230;-73
2022/01/22 15:51:57;;;;;;;1.98;1.80;;;;;;;;;;5054779;28;20190;-74
2022/01/22 15:54:24;;;;;;;2.55;1.67;;;;;;;;;;5068321;28;20632;-73
2022/01/22 15:56:52;;;;;;;3.33;1.63;;;;;;;;;;5058895;28;20718;-74
2022/01/22 15:59:20;;;;;;;2.15;1.95;;;;;;;;;;5067401;28;20733;-73
2022/01/22 16:01:49;;;;;;;2.40;1.85;;;;;;;;;;5063057;28;20251;-73
2022/01/22 16:04:17;;;;;;;3.30;1.80;;;;;;;;;;5068491;28;20669;-75
2022/01/22 16:06:57;;;;;;;3.90;2.60;;;;;;;;;;5062118;28;20202;-76
2022/01/22 16:09:26;;;;;;;2.10;1.80;;;;;;;;;;5068404;28;20208;-75
2022/01/22 16:11:53;;;;;;;2.10;1.90;;;;;;;;;;5064202;28;20194;-73
2022/01/22 16:14:20;;;;;;;5.85;2.15;;;;;;;;;;5062397;28;20225;-74